Time;durP1;ratioP1;P1;durP2;ratioP2;P2;SDS_P1;SDS_P2;PMS_P1;PMS_P2;Temp;Humidity;BMP_temperature;BMP_pressure;BME280_temperature;BME280_humidity;BME280_pressure;Samples;Min_cycle;Max_cycle;Signal;HPM_P1;HPM_P2
2022/01/28 00:01:52;;;;;;;16.02;8.63;;;2.90;99.90;;;;;;4999412;28;20320;-85
2022/01/28 00:04:18;;;;;;;13.50;7.05;;;;;;;;;;4999151;28;20194;-86
2022/01/28 00:06:44;;;;;;;15.63;9.30;;;2.90;99.90;;;;;;4999871;28;20291;-86
2022/01/28 00:09:10;;;;;;;13.60;5.63;;;;;;;;;;5010585;28;20206;-86
2022/01/28 00:11:36;;;;;;;16.20;9.53;;;;;;;;;;5001774;28;20198;-85
2022/01/28 00:14:16;;;;;;;11.77;6.60;;;2.90;99.90;;;;;;4999576;28;20443;-85
2022/01/28 00:38:33;;;;;;;10.02;6.32;;;2.80;99.90;;;;;;5003512;28;20205;-85
2022/01/28 00:40:59;;;;;;;13.40;7.43;;;;;;;;;;5001227;28;20174;-86
2022/01/28 00:43:25;;;;;;;14.90;7.47;;;;;;;;;;5005334;28;20563;-86
2022/01/28 00:45:50;;;;;;;8.82;5.47;;;2.70;99.90;;;;;;5001396;28;20441;-86
2022/01/28 00:48:17;;;;;;;12.53;7.60;;;;;;;;;;4999467;28;20202;-85
2022/01/28 00:50:43;;;;;;;8.70;5.35;;;;;;;;;;5000809;28;20213;-86
2022/01/28 00:53:09;;;;;;;15.93;7.97;;;2.70;99.90;;;;;;5001699;28;20182;-86
2022/01/28 00:55:35;;;;;;;17.38;8.00;;;2.80;99.90;;;;;;5010890;28;20174;-85
2022/01/28 00:58:01;;;;;;;12.13;6.87;;;2.70;99.90;;;;;;5014840;28;20220;-85
2022/01/28 01:00:27;;;;;;;14.63;7.50;;;;;;;;;;5001606;28;21368;-86
2022/01/28 01:02:52;;;;;;;10.87;5.43;;;;;;;;;;5001010;28;20228;-85
2022/01/28 01:05:20;;;;;;;7.10;5.00;;;;;;;;;;4996025;28;20445;-86
2022/01/28 01:07:46;;;;;;;16.00;7.78;;;;;;;;;;5005245;28;20453;-86
2022/01/28 01:10:12;;;;;;;13.93;7.73;;;;;;;;;;4996564;28;21017;-86
2022/01/28 01:12:43;;;;;;;8.60;5.50;;;;;;;;;;5002171;28;20431;-85
2022/01/28 01:15:10;;;;;;;15.82;8.48;;;2.30;99.90;;;;;;5003150;28;20250;-86
2022/01/28 01:17:41;;;;;;;25.55;9.70;;;2.40;99.90;;;;;;5009808;28;20202;-85
2022/01/28 01:21:00;;;;;;;12.57;6.78;;;2.40;99.90;;;;;;4994908;28;20541;-85
2022/01/28 01:23:07;;;;;;;14.45;9.25;;;2.40;99.90;;;;;;5009633;28;20182;-86
2022/01/28 01:25:43;;;;;;;9.75;6.60;;;2.40;99.90;;;;;;5006035;28;20638;-85
2022/01/28 01:28:13;;;;;;;14.02;6.00;;;2.40;99.90;;;;;;5001416;28;20198;-85
2022/01/28 01:30:41;;;;;;;15.07;7.75;;;2.40;99.90;;;;;;4999374;28;20206;-85
2022/01/28 01:33:08;;;;;;;11.52;6.53;;;2.40;99.90;;;;;;4995770;28;20277;-86
2022/01/28 01:35:34;;;;;;;28.20;8.38;;;2.50;99.90;;;;;;5003545;28;20183;-85
2022/01/28 01:38:00;;;;;;;14.30;7.60;;;2.40;99.90;;;;;;5002624;28;20205;-85
2022/01/28 01:40:32;;;;;;;11.70;7.70;;;;;;;;;;5004360;28;20602;-85
2022/01/28 01:43:17;;;;;;;14.50;7.85;;;2.40;99.90;;;;;;4997911;28;20448;-85
2022/01/28 01:45:58;;;;;;;16.17;9.65;;;;;;;;;;5001191;28;20534;-85
2022/01/28 01:53:52;;;;;;;10.25;6.45;;;2.20;99.90;;;;;;5001954;28;20251;-85
2022/01/28 01:56:20;;;;;;;13.70;8.00;;;2.40;99.90;;;;;;5004658;28;20183;-84
2022/01/28 01:58:46;;;;;;;12.80;8.35;;;;;;;;;;5004193;28;20205;-84
2022/01/28 02:01:12;;;;;;;14.65;7.53;;;;;;;;;;5002859;28;20192;-85
2022/01/28 02:03:38;;;;;;;10.57;5.95;;;2.20;99.90;;;;;;4995476;28;20179;-84
2022/01/28 02:06:04;;;;;;;11.57;6.57;;;2.30;99.90;;;;;;5000040;28;20609;-84
2022/01/28 02:08:34;;;;;;;33.90;8.13;;;2.30;99.90;;;;;;5002119;28;20218;-84
2022/01/28 02:11:00;;;;;;;19.98;9.13;;;2.30;99.90;;;;;;5004771;28;21598;-83
2022/01/28 02:13:27;;;;;;;14.20;7.78;;;2.40;99.90;;;;;;5005288;28;20171;-85
2022/01/28 02:15:54;;;;;;;10.73;5.65;;;2.50;99.90;;;;;;5020962;28;20189;-85
2022/01/28 02:18:21;;;;;;;17.02;9.60;;;2.50;99.90;;;;;;5012680;28;20895;-85
2022/01/28 02:20:50;;;;;;;10.10;7.22;;;;;;;;;;5007748;28;20595;-84
2022/01/28 02:23:17;;;;;;;18.90;9.60;;;2.50;99.90;;;;;;5007230;28;20195;-85
2022/01/28 02:25:43;;;;;;;12.82;7.70;;;2.50;99.90;;;;;;5005350;28;20192;-85
2022/01/28 02:28:13;;;;;;;18.45;10.43;;;2.60;99.90;;;;;;5008540;28;20206;-85
2022/01/28 02:30:38;;;;;;;14.82;7.95;;;2.60;99.90;;;;;;5003355;28;20721;-85
2022/01/28 02:33:17;;;;;;;17.03;8.80;;;;;;;;;;5006360;28;20186;-84
2022/01/28 02:35:44;;;;;;;16.52;8.02;;;2.60;99.90;;;;;;5005293;28;20182;-85
2022/01/28 02:38:11;;;;;;;13.35;7.20;;;2.80;99.90;;;;;;5009687;28;20298;-84
2022/01/28 02:40:39;;;;;;;10.70;6.80;;;2.80;99.90;;;;;;5003080;28;20179;-84
2022/01/28 02:43:24;;;;;;;13.57;7.47;;;;;;;;;;4997585;28;20183;-84
2022/01/28 02:45:52;;;;;;;12.02;8.07;;;2.80;99.90;;;;;;4999965;28;20242;-85
2022/01/28 02:48:22;;;;;;;11.85;7.32;;;;;;;;;;5002753;28;20224;-84
2022/01/28 02:51:02;;;;;;;9.38;5.78;;;2.90;99.90;;;;;;4996743;28;20931;-85
2022/01/28 02:53:38;;;;;;;13.68;7.57;;;2.90;99.90;;;;;;4996077;28;20178;-84
2022/01/28 02:56:13;;;;;;;12.15;6.15;;;2.80;99.90;;;;;;5002620;28;20219;-84
2022/01/28 02:58:38;;;;;;;9.90;6.35;;;3.00;99.90;;;;;;4999263;28;20205;-85
2022/01/28 03:01:04;;;;;;;18.83;9.60;;;;;;;;;;5006243;28;20305;-86
2022/01/28 03:03:30;;;;;;;15.82;9.02;;;2.80;99.90;;;;;;5013504;28;20200;-86
2022/01/28 03:05:56;;;;;;;13.60;7.47;;;;;;;;;;5001575;28;20190;-85
2022/01/28 03:08:25;;;;;;;12.10;5.97;;;2.90;99.90;;;;;;4996545;28;20210;-85
2022/01/28 03:11:16;;;;;;;14.57;7.07;;;2.90;99.90;;;;;;4995487;28;20502;-85
2022/01/28 03:14:00;;;;;;;14.82;7.40;;;2.90;99.90;;;;;;5005525;28;20178;-85
2022/01/28 03:16:29;;;;;;;11.88;7.15;;;3.00;99.90;;;;;;5001950;28;20210;-84
2022/01/28 03:24:00;;;;;;;13.35;7.90;;;2.90;99.90;;;;;;4996666;28;20190;-85
2022/01/28 03:26:28;;;;;;;14.15;7.97;;;;;;;;;;4993230;28;20182;-84
2022/01/28 03:28:54;;;;;;;15.85;8.95;;;2.90;99.90;;;;;;5001732;28;20206;-85
2022/01/28 03:31:20;;;;;;;19.10;8.20;;;;;;;;;;5000723;28;21246;-85
2022/01/28 03:33:46;;;;;;;17.15;8.50;;;2.70;99.90;;;;;;5019980;28;20204;-83
2022/01/28 03:36:13;;;;;;;12.48;7.65;;;2.90;99.90;;;;;;5002926;28;20197;-85
2022/01/28 03:38:40;;;;;;;13.98;9.07;;;3.00;99.90;;;;;;4999856;28;20226;-85
2022/01/28 03:41:13;;;;;;;16.05;7.78;;;2.90;99.90;;;;;;5002968;28;20300;-84
2022/01/28 03:43:39;;;;;;;14.18;8.35;;;3.00;99.90;;;;;;4998529;28;20205;-85
2022/01/28 03:46:06;;;;;;;20.73;9.70;;;2.80;99.90;;;;;;5003034;28;20646;-85
2022/01/28 03:48:32;;;;;;;18.55;9.50;;;;;;;;;;5004199;28;20753;-85
2022/01/28 03:50:57;;;;;;;16.65;8.02;;;2.90;99.90;;;;;;4999437;28;20214;-85
2022/01/28 03:53:24;;;;;;;15.40;7.60;;;;;;;;;;4992603;28;20640;-85
2022/01/28 03:55:52;;;;;;;12.95;5.68;;;;;;;;;;4998205;28;20179;-84
2022/01/28 03:58:18;;;;;;;15.07;8.05;;;;;;;;;;4999621;28;20202;-85
2022/01/28 04:00:45;;;;;;;11.73;6.70;;;;;;;;;;4999721;28;20650;-84
2022/01/28 04:03:35;;;;;;;16.67;6.25;;;;;;;;;;4996414;28;20452;-85
2022/01/28 04:13:57;;;;;;;28.67;11.57;;;2.80;99.90;;;;;;4996901;28;20185;-85
2022/01/28 04:17:17;;;;;;;17.02;8.60;;;;;;;;;;5000166;28;20175;-85
2022/01/28 04:19:15;;;;;;;18.17;8.82;;;2.40;99.90;;;;;;5000992;28;20211;-85
2022/01/28 04:21:41;;;;;;;11.40;5.60;;;;;;;;;;4997124;28;20200;-85
2022/01/28 04:24:07;;;;;;;9.87;6.10;;;;;;;;;;4999614;28;20255;-84
2022/01/28 04:26:34;;;;;;;7.75;5.05;;;;;;;;;;5000494;28;20473;-85
2022/01/28 04:28:59;;;;;;;13.57;7.57;;;;;;;;;;5001426;28;20203;-86
2022/01/28 04:31:25;;;;;;;12.40;6.63;;;;;;;;;;4994267;28;20474;-85
2022/01/28 04:33:53;;;;;;;11.13;6.13;;;;;;;;;;4992747;28;20437;-84
2022/01/28 04:36:21;;;;;;;13.00;6.97;;;;;;;;;;4999911;28;20468;-85
2022/01/28 04:38:55;;;;;;;17.67;6.25;;;;;;;;;;5000523;28;20568;-87
2022/01/28 04:41:34;;;;;;;12.63;7.30;;;;;;;;;;4997848;28;20242;-83
2022/01/28 04:44:08;;;;;;;12.57;7.00;;;3.00;99.90;;;;;;4999528;28;20182;-85
2022/01/28 04:46:46;;;;;;;14.38;6.68;;;;;;;;;;4998839;28;20192;-86
2022/01/28 04:49:18;;;;;;;14.95;6.93;;;2.90;99.90;;;;;;5001376;28;20214;-86
2022/01/28 04:51:56;;;;;;;14.02;6.85;;;;;;;;;;4997702;28;20232;-85
2022/01/28 04:54:40;;;;;;;10.90;6.95;;;;;;;;;;5014666;28;20177;-85
2022/01/28 05:04:53;;;;;;;16.50;6.83;;;;;;;;;;5003789;28;20246;-87
2022/01/28 05:28:46;;;;;;;11.45;7.05;;;2.80;99.90;;;;;;4997492;28;20206;-85
2022/01/28 05:31:11;;;;;;;19.38;9.18;;;2.70;99.90;;;;;;5016622;28;20199;-85
2022/01/28 05:33:37;;;;;;;16.57;10.80;;;;;;;;;;5003567;28;20638;-85
2022/01/28 05:36:03;;;;;;;13.93;7.50;;;;;;;;;;4989992;28;20179;-84
2022/01/28 05:38:29;;;;;;;11.57;6.20;;;;;;;;;;5002258;28;20446;-83
2022/01/28 05:40:55;;;;;;;12.23;8.03;;;;;;;;;;5019349;28;21229;-84
2022/01/28 05:43:21;;;;;;;14.57;8.65;;;;;;;;;;4988399;28;20439;-84
2022/01/28 05:45:47;;;;;;;18.87;9.33;;;;;;;;;;4986053;28;20186;-84
2022/01/28 05:48:12;;;;;;;14.30;8.03;;;;;;;;;;4995046;28;20483;-83
2022/01/28 05:50:38;;;;;;;26.37;10.30;;;;;;;;;;4995715;28;21556;-84
2022/01/28 05:53:05;;;;;;;26.70;10.47;;;2.30;99.90;;;;;;4999616;28;21236;-84
2022/01/28 05:55:31;;;;;;;17.88;9.18;;;;;;;;;;5000817;28;20438;-85
2022/01/28 05:57:56;;;;;;;16.37;9.70;;;2.40;99.90;;;;;;4996597;28;20224;-83
2022/01/28 06:00:22;;;;;;;24.60;9.63;;;2.40;99.90;;;;;;4997758;28;20433;-83
2022/01/28 06:02:47;;;;;;;26.43;12.73;;;2.30;99.90;;;;;;5003745;28;20221;-83
2022/01/28 06:05:13;;;;;;;18.33;6.97;;;2.30;99.90;;;;;;4995862;28;20210;-85
2022/01/28 06:07:41;;;;;;;14.70;6.33;;;2.60;99.90;;;;;;4999666;28;20213;-83
2022/01/28 06:10:09;;;;;;;11.32;5.78;;;2.60;99.90;;;;;;5009195;28;20430;-84
2022/01/28 06:12:42;;;;;;;11.27;6.65;;;2.80;99.90;;;;;;5006138;28;20170;-83
2022/01/28 06:15:10;;;;;;;14.63;6.47;;;2.90;99.90;;;;;;5010250;28;20206;-85
2022/01/28 06:17:35;;;;;;;18.33;7.85;;;2.90;99.90;;;;;;5007608;28;20218;-83
2022/01/28 06:20:02;;;;;;;20.80;9.90;;;;;;;;;;5010035;28;20189;-84
2022/01/28 06:22:28;;;;;;;20.40;9.95;;;2.70;99.90;;;;;;5003916;28;20987;-83
2022/01/28 06:24:53;;;;;;;25.53;10.83;;;2.60;99.90;;;;;;5008405;28;20190;-84
2022/01/28 06:27:19;;;;;;;24.27;10.50;;;2.40;99.90;;;;;;5004997;28;20210;-85
2022/01/28 06:29:45;;;;;;;20.47;10.30;;;;;;;;;;5004527;28;21236;-84
2022/01/28 06:32:11;;;;;;;22.87;10.47;;;;;;;;;;5003346;28;20259;-83
2022/01/28 06:34:38;;;;;;;16.80;9.27;;;2.30;99.90;;;;;;5003007;28;20437;-83
2022/01/28 06:37:04;;;;;;;21.40;10.43;;;;;;;;;;5009451;28;20187;-83
2022/01/28 06:39:32;;;;;;;19.90;11.35;;;2.30;99.90;;;;;;5011186;28;20719;-84
2022/01/28 06:41:58;;;;;;;13.45;7.95;;;;;;;;;;5007500;28;21434;-83
2022/01/28 06:44:25;;;;;;;27.33;12.33;;;;;;;;;;5002523;28;20239;-83
2022/01/28 06:46:51;;;;;;;28.73;12.05;;;2.40;99.90;;;;;;5005967;28;20441;-85
2022/01/28 06:49:17;;;;;;;17.83;10.30;;;;;;;;;;4995678;28;20221;-84
2022/01/28 06:51:42;;;;;;;25.83;11.20;;;2.50;99.90;;;;;;5005288;28;20468;-84
2022/01/28 06:54:08;;;;;;;23.17;11.40;;;;;;;;;;5005723;28;21152;-85
2022/01/28 06:56:34;;;;;;;25.70;12.13;;;2.50;99.90;;;;;;5001701;28;20205;-84
2022/01/28 06:59:00;;;;;;;21.93;10.77;;;;;;;;;;4995091;28;20514;-84
2022/01/28 07:01:26;;;;;;;16.27;10.40;;;;;;;;;;5000926;28;20186;-85
2022/01/28 07:03:51;;;;;;;18.25;10.32;;;2.80;99.90;;;;;;5005027;28;20466;-85
2022/01/28 07:06:18;;;;;;;21.70;10.20;;;;;;;;;;5005779;28;20186;-85
2022/01/28 07:08:44;;;;;;;20.98;9.88;;;;;;;;;;4994248;28;20708;-83
2022/01/28 07:11:10;;;;;;;27.13;11.38;;;2.80;99.90;;;;;;5008189;28;20633;-84
2022/01/28 07:13:36;;;;;;;22.03;10.27;;;;;;;;;;5003442;28;20171;-85
2022/01/28 07:16:02;;;;;;;26.37;10.53;;;;;;;;;;5007256;28;20190;-85
2022/01/28 07:18:28;;;;;;;25.77;11.33;;;2.80;99.90;;;;;;5012093;28;20461;-84
2022/01/28 07:20:54;;;;;;;25.63;12.57;;;;;;;;;;5012182;28;20457;-84
2022/01/28 07:23:20;;;;;;;25.13;10.23;;;;;;;;;;5006146;28;20217;-83
2022/01/28 07:25:46;;;;;;;20.95;10.10;;;;;;;;;;5007032;28;20433;-83
2022/01/28 07:28:12;;;;;;;25.90;11.70;;;;;;;;;;5020351;28;20213;-85
2022/01/28 07:30:38;;;;;;;20.77;12.68;;;2.80;99.90;;;;;;4993813;28;21118;-83
2022/01/28 07:33:07;;;;;;;29.27;14.40;;;2.90;99.90;;;;;;5004661;28;20184;-83
2022/01/28 07:35:33;;;;;;;22.02;10.02;;;2.90;99.90;;;;;;5018821;28;20174;-84
2022/01/28 07:37:59;;;;;;;23.05;12.45;;;3.00;99.90;;;;;;5007915;28;20289;-85
2022/01/28 07:40:25;;;;;;;22.93;11.97;;;;;;;;;;5007345;28;20198;-85
2022/01/28 07:42:51;;;;;;;21.37;10.00;;;;;;;;;;5017581;28;20429;-83
2022/01/28 07:45:17;;;;;;;46.67;15.07;;;;;;;;;;5009727;28;21517;-85
2022/01/28 07:47:44;;;;;;;27.67;13.95;;;2.90;99.90;;;;;;4999669;28;20972;-83
2022/01/28 07:50:11;;;;;;;23.67;12.07;;;2.90;99.90;;;;;;5009716;28;20194;-85
2022/01/28 07:52:37;;;;;;;23.40;11.02;;;2.90;99.90;;;;;;5001577;28;20182;-84
2022/01/28 07:55:05;;;;;;;24.27;10.93;;;2.90;99.90;;;;;;5006754;28;20211;-84
2022/01/28 07:57:31;;;;;;;26.60;10.90;;;;;;;;;;5001195;28;20416;-83
2022/01/28 07:59:57;;;;;;;28.25;10.90;;;3.10;99.90;;;;;;5007407;28;20522;-84
2022/01/28 08:02:23;;;;;;;24.35;10.30;;;3.10;99.90;;;;;;4998921;28;20182;-84
2022/01/28 08:04:49;;;;;;;26.40;11.23;;;;;;;;;;5008706;28;20186;-84
2022/01/28 08:07:15;;;;;;;28.80;13.37;;;;;;;;;;5013792;27;20206;-83
2022/01/28 08:09:40;;;;;;;17.40;9.45;;;3.60;99.90;;;;;;4997526;28;21156;-83
2022/01/28 08:12:07;;;;;;;27.10;12.43;;;;;;;;;;4999604;28;20214;-84
2022/01/28 08:14:33;;;;;;;15.27;8.93;;;;;;;;;;5001751;28;20194;-84
2022/01/28 08:16:59;;;;;;;23.35;10.70;;;;;;;;;;5003644;28;20263;-84
2022/01/28 08:19:25;;;;;;;22.50;10.27;;;3.40;99.90;;;;;;5003078;28;20201;-84
2022/01/28 08:21:51;;;;;;;23.67;11.10;;;3.40;99.90;;;;;;4996480;28;20178;-84
2022/01/28 08:24:16;;;;;;;28.60;12.68;;;3.40;99.90;;;;;;5002267;28;20186;-84
2022/01/28 08:26:42;;;;;;;21.00;9.70;;;;;;;;;;5001882;28;20235;-84
2022/01/28 08:29:08;;;;;;;25.50;9.57;;;;;;;;;;5001030;28;20226;-84
2022/01/28 08:31:34;;;;;;;17.50;8.90;;;;;;;;;;5023356;28;20512;-83
2022/01/28 08:34:01;;;;;;;18.70;9.10;;;;;;;;;;5007109;28;20992;-84
2022/01/28 08:36:27;;;;;;;18.70;8.73;;;;;;;;;;5005883;28;20469;-83
2022/01/28 08:38:55;;;;;;;24.73;10.30;;;3.80;99.90;;;;;;5000681;28;20255;-84
2022/01/28 08:41:24;;;;;;;17.58;9.63;;;3.70;99.90;;;;;;5006558;28;20183;-85
2022/01/28 08:43:51;;;;;;;21.67;9.25;;;3.70;99.90;;;;;;4999114;28;20798;-84
2022/01/28 08:46:18;;;;;;;25.95;12.00;;;3.70;99.90;;;;;;5006754;28;20179;-83
2022/01/28 08:48:43;;;;;;;16.48;8.32;;;3.50;99.90;;;;;;5000362;28;20206;-83
2022/01/28 08:51:09;;;;;;;14.17;9.70;;;;;;;;;;5000267;28;20225;-84
2022/01/28 08:53:38;;;;;;;19.10;9.37;;;;;;;;;;5016910;28;20190;-82
2022/01/28 08:56:04;;;;;;;25.30;10.35;;;;;;;;;;5019829;28;20453;-84
2022/01/28 08:58:29;;;;;;;26.30;10.45;;;4.10;99.90;;;;;;5005791;28;20227;-84
2022/01/28 09:00:55;;;;;;;10.87;6.53;;;;;;;;;;5004908;28;20174;-84
2022/01/28 09:03:22;;;;;;;19.60;8.40;;;4.30;99.90;;;;;;5016855;28;21452;-84
2022/01/28 09:05:48;;;;;;;15.77;8.27;;;;;;;;;;5007706;28;20779;-84
2022/01/28 09:08:14;;;;;;;16.27;8.48;;;;;;;;;;5007023;28;20251;-85
2022/01/28 09:10:45;;;;;;;22.35;7.40;;;4.20;99.90;;;;;;4995633;28;20259;-84
2022/01/28 09:13:24;;;;;;;19.52;10.77;;;4.10;99.90;;;;;;5001695;28;20654;-84
2022/01/28 09:15:52;;;;;;;14.25;9.20;;;4.10;99.90;;;;;;5001223;28;20650;-83
2022/01/28 09:18:19;;;;;;;19.50;8.80;;;4.10;99.90;;;;;;5001433;28;20409;-85
2022/01/28 09:20:45;;;;;;;23.00;8.25;;;4.00;99.90;;;;;;5007306;28;20662;-84
2022/01/28 09:23:11;;;;;;;27.95;9.77;;;;;;;;;;5004611;28;20190;-84
2022/01/28 09:25:37;;;;;;;15.95;6.45;;;4.10;99.90;;;;;;4998467;28;20197;-84
2022/01/28 09:28:04;;;;;;;23.87;9.87;;;4.30;99.90;;;;;;4994098;28;20206;-84
2022/01/28 09:30:30;;;;;;;13.52;6.30;;;;;;;;;;5003794;28;20183;-84
2022/01/28 09:32:57;;;;;;;14.07;8.00;;;;;;;;;;5004916;28;20178;-83
2022/01/28 09:35:23;;;;;;;20.30;9.05;;;;;;;;;;5005187;28;20247;-83
2022/01/28 09:37:50;;;;;;;13.77;6.93;;;4.40;99.90;;;;;;5003953;28;20673;-84
2022/01/28 09:40:16;;;;;;;14.38;7.53;;;;;;;;;;5004071;28;20240;-84
2022/01/28 09:42:45;;;;;;;12.95;6.88;;;;;;;;;;4998864;28;20856;-83
2022/01/28 09:45:13;;;;;;;12.55;7.40;;;4.60;99.90;;;;;;5006466;28;20167;-84
2022/01/28 09:47:40;;;;;;;14.05;6.32;;;4.50;99.90;;;;;;4995236;28;20271;-85
2022/01/28 09:50:06;;;;;;;17.45;8.48;;;4.70;99.90;;;;;;5007043;28;20205;-85
2022/01/28 09:52:33;;;;;;;12.10;6.15;;;4.80;99.90;;;;;;5000654;28;20209;-84
2022/01/28 09:54:59;;;;;;;18.27;7.78;;;;;;;;;;5005280;28;20175;-83
2022/01/28 09:57:25;;;;;;;13.27;7.35;;;;;;;;;;5016547;28;20206;-83
2022/01/28 09:59:51;;;;;;;20.57;7.80;;;;;;;;;;5008142;28;20186;-84
2022/01/28 10:02:17;;;;;;;18.40;9.10;;;;;;;;;;5005429;28;20439;-83
2022/01/28 10:04:43;;;;;;;20.85;8.75;;;;;;;;;;4998878;28;20783;-84
2022/01/28 10:07:16;;;;;;;17.50;9.10;;;4.90;99.90;;;;;;5004752;28;20190;-84
2022/01/28 10:09:56;;;;;;;14.07;6.80;;;5.10;99.90;;;;;;5006339;28;20518;-85
2022/01/28 10:12:32;;;;;;;15.43;7.15;;;5.30;99.90;;;;;;5000511;28;20206;-83
2022/01/28 10:15:00;;;;;;;22.67;8.30;;;5.60;99.90;;;;;;5021114;28;20666;-83
2022/01/28 10:17:51;;;;;;;11.65;8.02;;;5.60;99.90;;;;;;5020934;28;20206;-85
2022/01/28 10:20:17;;;;;;;15.85;8.45;;;;;;;;;;5009739;28;21101;-84
2022/01/28 10:22:58;;;;;;;20.10;7.60;;;5.70;99.90;;;;;;5001918;28;20198;-84
2022/01/28 10:25:35;;;;;;;13.60;8.10;;;5.70;99.90;;;;;;5005914;28;20593;-83
2022/01/28 10:28:04;;;;;;;21.25;8.93;;;5.70;99.90;;;;;;4994738;28;20202;-84
2022/01/28 10:30:39;;;;;;;18.40;8.43;;;5.80;99.90;;;;;;5009249;28;20265;-84
2022/01/28 10:33:23;;;;;;;17.60;7.78;;;5.90;99.90;;;;;;5004860;28;20179;-84
2022/01/28 10:35:59;;;;;;;24.88;8.48;;;5.80;99.90;;;;;;5008348;28;20186;-85
2022/01/28 10:38:33;;;;;;;20.58;7.63;;;5.70;99.90;;;;;;4997745;28;20676;-85
2022/01/28 10:41:13;;;;;;;18.60;7.15;;;5.40;99.90;;;;;;4995562;28;20200;-84
2022/01/28 10:43:42;;;;;;;15.52;7.05;;;5.20;99.90;;;;;;4996881;28;20273;-85
2022/01/28 10:46:08;;;;;;;13.13;7.60;;;;;;;;;;5008467;28;20262;-84
2022/01/28 10:48:49;;;;;;;16.83;7.55;;;5.40;99.90;;;;;;5012136;28;21062;-84
2022/01/28 10:51:15;;;;;;;18.33;6.35;;;;;;;;;;5004624;28;20206;-85
2022/01/28 10:53:41;;;;;;;15.23;7.20;;;;;;;;;;5002133;28;20193;-83
2022/01/28 10:56:11;;;;;;;13.50;7.57;;;5.30;99.90;;;;;;5008639;27;20444;-85
2022/01/28 10:58:38;;;;;;;9.65;4.85;;;5.00;99.90;;;;;;4992062;28;20457;-85
2022/01/28 11:01:04;;;;;;;13.18;6.70;;;4.90;99.90;;;;;;4992069;28;20331;-86
2022/01/28 11:03:30;;;;;;;11.73;5.88;;;;;;;;;;5002755;28;20568;-85
2022/01/28 11:05:58;;;;;;;12.30;6.47;;;5.00;99.90;;;;;;5007584;28;20764;-85
2022/01/28 11:08:26;;;;;;;17.13;6.43;;;5.10;99.90;;;;;;5007981;28;20210;-86
2022/01/28 11:10:55;;;;;;;9.30;5.60;;;5.00;99.90;;;;;;4988202;28;20993;-85
2022/01/28 11:13:22;;;;;;;12.13;5.88;;;5.10;99.90;;;;;;4998928;28;20194;-85
2022/01/28 11:15:48;;;;;;;15.68;6.50;;;;;;;;;;5002846;28;20661;-84
2022/01/28 11:18:14;;;;;;;14.02;5.70;;;4.50;99.90;;;;;;4998392;28;20202;-84
2022/01/28 11:20:49;;;;;;;18.60;7.78;;;4.40;99.90;;;;;;5004852;28;20190;-85
2022/01/28 11:23:31;;;;;;;17.02;7.68;;;4.30;99.90;;;;;;5003176;28;20190;-84
2022/01/28 11:26:20;;;;;;;14.82;7.40;;;4.90;99.90;;;;;;5001271;28;20178;-84
2022/01/28 11:28:48;;;;;;;13.40;7.05;;;5.60;99.90;;;;;;5002833;28;20220;-85
2022/01/28 11:31:14;;;;;;;11.95;5.97;;;5.30;99.90;;;;;;4995999;28;20335;-84
2022/01/28 11:33:51;;;;;;;15.68;7.07;;;5.30;99.90;;;;;;5002534;28;20190;-83
2022/01/28 11:36:33;;;;;;;10.13;6.65;;;5.60;99.90;;;;;;5026445;28;20194;-83
2022/01/28 11:39:28;;;;;;;10.10;5.88;;;5.50;99.90;;;;;;5011720;28;20210;-84
2022/01/28 11:42:06;;;;;;;10.02;5.15;;;5.30;99.90;;;;;;5009512;28;20186;-84
2022/01/28 11:44:44;;;;;;;11.82;4.10;;;5.10;99.90;;;;;;4995446;28;20194;-85
2022/01/28 11:47:19;;;;;;;12.57;5.22;;;5.10;99.90;;;;;;5000680;28;20218;-85
2022/01/28 11:49:57;;;;;;;13.90;7.55;;;5.10;99.90;;;;;;5016242;28;20194;-84
2022/01/28 11:52:29;;;;;;;12.18;7.07;;;5.40;99.90;;;;;;5006145;28;20202;-84
2022/01/28 11:54:56;;;;;;;15.45;5.65;;;5.80;99.90;;;;;;5010427;28;20184;-85
2022/01/28 11:57:26;;;;;;;12.77;6.53;;;5.50;99.90;;;;;;5005292;28;20202;-84
2022/01/28 11:59:52;;;;;;;13.23;6.50;;;;;;;;;;5007329;28;20186;-83
2022/01/28 12:02:20;;;;;;;11.82;6.28;;;5.80;99.90;;;;;;5008533;28;20213;-84
2022/01/28 12:04:46;;;;;;;10.27;5.60;;;;;;;;;;4999629;28;20561;-84
2022/01/28 12:07:22;;;;;;;9.40;5.60;;;5.50;99.90;;;;;;5006091;28;20185;-86
2022/01/28 12:09:50;;;;;;;15.18;7.03;;;5.70;99.90;;;;;;5008461;28;20193;-85
2022/01/28 12:12:23;;;;;;;14.23;6.97;;;5.70;99.90;;;;;;5003106;28;20210;-85
2022/01/28 12:14:55;;;;;;;12.27;6.90;;;;;;;;;;5000997;28;20670;-84
2022/01/28 12:17:30;;;;;;;17.02;6.22;;;5.40;99.90;;;;;;4998617;28;20274;-82
2022/01/28 12:20:24;;;;;;;11.07;6.05;;;5.60;99.90;;;;;;4990367;28;21783;-83
2022/01/28 12:23:03;;;;;;;8.43;5.10;;;5.50;99.90;;;;;;5001091;28;20290;-84
2022/01/28 12:25:40;;;;;;;12.52;5.70;;;5.60;99.90;;;;;;5004879;28;20639;-85
2022/01/28 12:28:31;;;;;;;25.00;7.03;;;5.80;99.90;;;;;;4992377;28;20210;-83
2022/01/28 12:31:16;;;;;;;10.18;4.35;;;5.50;99.90;;;;;;5005200;28;20293;-83
2022/01/28 12:33:44;;;;;;;10.40;6.38;;;5.50;99.90;;;;;;5007692;28;20203;-83
2022/01/28 12:36:11;;;;;;;12.50;8.05;;;5.60;99.90;;;;;;4995876;28;20190;-84
2022/01/28 12:38:43;;;;;;;12.35;8.00;;;5.70;99.90;;;;;;5014067;28;20578;-83
2022/01/28 12:41:09;;;;;;;20.95;8.55;;;;;;;;;;5013230;28;20183;-84
2022/01/28 12:43:38;;;;;;;8.60;5.55;;;5.30;99.90;;;;;;5005709;28;20189;-85
2022/01/28 12:46:15;;;;;;;14.82;7.32;;;5.30;99.90;;;;;;5007762;28;20193;-84
2022/01/28 12:48:49;;;;;;;12.55;6.15;;;5.00;99.90;;;;;;4996934;28;20216;-84
2022/01/28 12:51:16;;;;;;;12.23;6.22;;;5.00;99.90;;;;;;5005988;28;20232;-84
2022/01/28 12:53:48;;;;;;;20.10;8.60;;;5.00;99.90;;;;;;5001528;28;20190;-84
2022/01/28 12:56:17;;;;;;;18.38;9.38;;;;;;;;;;5015260;28;20168;-83
2022/01/28 12:58:49;;;;;;;21.25;9.10;;;4.90;99.90;;;;;;5019138;28;20194;-85
2022/01/28 13:01:17;;;;;;;19.85;9.70;;;5.00;99.90;;;;;;5012019;28;20182;-84
2022/01/28 13:03:51;;;;;;;12.63;7.82;;;5.00;99.90;;;;;;5010222;28;20182;-84
2022/01/28 13:06:25;;;;;;;12.10;7.18;;;4.80;99.90;;;;;;5017348;28;20587;-83
2022/01/28 13:08:51;;;;;;;19.17;7.93;;;;;;;;;;4998006;28;20210;-83
2022/01/28 13:11:17;;;;;;;18.00;8.10;;;;;;;;;;4993785;28;20214;-84
2022/01/28 13:13:47;;;;;;;22.53;8.60;;;4.90;99.90;;;;;;5002858;28;20179;-83
2022/01/28 13:16:13;;;;;;;20.02;8.85;;;;;;;;;;5010886;28;20452;-83
2022/01/28 13:18:54;;;;;;;18.43;8.03;;;4.90;99.90;;;;;;5008142;28;20206;-83
2022/01/28 13:21:21;;;;;;;21.50;8.10;;;;;;;;;;5005726;28;20524;-84
2022/01/28 13:23:47;;;;;;;13.20;6.63;;;;;;;;;;5000997;28;20220;-83
2022/01/28 13:26:13;;;;;;;16.95;7.35;;;;;;;;;;5015580;28;20170;-82
2022/01/28 13:28:40;;;;;;;16.40;8.00;;;;;;;;;;5013203;28;20198;-83
2022/01/28 13:31:06;;;;;;;17.52;8.07;;;;;;;;;;5010068;28;20534;-83
2022/01/28 13:33:32;;;;;;;14.55;6.50;;;5.00;99.90;;;;;;5009369;28;20188;-85
2022/01/28 13:35:59;;;;;;;13.77;8.50;;;5.20;99.90;;;;;;5005781;28;20187;-84
2022/01/28 13:38:34;;;;;;;13.95;7.80;;;5.20;99.90;;;;;;5006079;28;20241;-85
2022/01/28 13:41:00;;;;;;;13.02;6.65;;;;;;;;;;5006908;28;20211;-84
2022/01/28 13:43:28;;;;;;;17.13;8.57;;;;;;;;;;5003917;28;20257;-83
2022/01/28 13:45:56;;;;;;;17.88;8.52;;;5.30;99.90;;;;;;5010231;28;20438;-84
2022/01/28 13:48:34;;;;;;;19.75;9.52;;;5.40;99.90;;;;;;5005948;28;20216;-84
2022/01/28 13:51:04;;;;;;;22.35;8.77;;;5.40;99.90;;;;;;5004604;28;20737;-83
2022/01/28 13:56:04;;;;;;;20.33;8.00;;;5.10;99.90;;;;;;5000425;28;20208;-84
2022/01/28 13:58:48;;;;;;;19.58;7.18;;;5.10;99.90;;;;;;5016550;28;20959;-84
2022/01/28 14:01:14;;;;;;;16.85;8.80;;;5.00;99.90;;;;;;5005711;28;20436;-84
2022/01/28 14:03:51;;;;;;;21.43;8.63;;;5.00;99.90;;;;;;5005561;28;20187;-83
2022/01/28 14:06:29;;;;;;;15.63;7.70;;;5.00;99.90;;;;;;5018135;28;20445;-85
2022/01/28 14:09:14;;;;;;;10.68;6.75;;;5.00;99.90;;;;;;4997093;28;20603;-83
2022/01/28 14:11:47;;;;;;;12.55;6.70;;;5.10;99.90;;;;;;5002267;28;20667;-84
2022/01/28 14:14:33;;;;;;;11.50;8.10;;;5.20;99.90;;;;;;5006092;28;20179;-84
2022/01/28 14:16:59;;;;;;;13.50;6.22;;;5.00;99.90;;;;;;5015137;28;20167;-83
2022/01/28 14:19:28;;;;;;;15.25;7.68;;;5.00;99.90;;;;;;5023045;28;20186;-83
2022/01/28 14:21:54;;;;;;;14.98;9.13;;;5.00;99.90;;;;;;5012176;28;20206;-82
2022/01/28 14:24:22;;;;;;;12.30;6.95;;;5.10;99.90;;;;;;5008968;28;20285;-83
2022/01/28 14:32:09;;;;;;;14.18;7.18;;;5.10;99.90;;;;;;5011171;28;20195;-83
2022/01/28 14:34:36;;;;;;;15.93;7.45;;;5.10;99.90;;;;;;5010867;28;20175;-83
2022/01/28 14:37:03;;;;;;;13.32;7.25;;;5.20;99.90;;;;;;5003137;28;20175;-83
2022/01/28 14:39:29;;;;;;;18.75;7.15;;;5.20;99.90;;;;;;5006775;28;20642;-84
2022/01/28 14:42:01;;;;;;;16.52;7.35;;;5.20;99.90;;;;;;5011020;28;20658;-83
2022/01/28 14:44:27;;;;;;;13.75;5.97;;;;;;;;;;5002701;28;20179;-84
2022/01/28 14:46:53;;;;;;;12.05;6.65;;;;;;;;;;5006287;28;20186;-83
2022/01/28 14:49:19;;;;;;;21.83;7.23;;;5.20;99.90;;;;;;5004302;28;20216;-84
2022/01/28 14:51:51;;;;;;;15.20;8.03;;;;;;;;;;5005729;28;21000;-83